Powell, Ohio
Current Conditions -  °F | °C
As of 12:53 PM on Monday 26 Jan 2015 (Local Time) from KOSU Reporting Station
Overcast Overcast  
Wind Chill:   Ceiling: 1100
Heat Index: 18°   Visibility: 10mi
Dew Point: 13°   Wind: 17mph
Humidity: 81%   Direction: 340°NNW
Pressure: 29.83"   Gusts: NA
Location:  40.16°N, 83.08°W
Report Text: KOSU 261753Z 34015KT 10SM OVC011 M08/M11 A2983 RMK AO2 SLP114 60000 T10781106 11067 21078 58005
Loading
Personal Weather Stations






























Interactive Weather Map New forecast layout! Learn more

10-Day Weather Forecast

Advertisements
Track Severe Weather on mobile